createdAt,value
2017-11-22T00:00:57.840Z,79.40
2017-11-22T00:03:25.426Z,79.40
2017-11-22T00:05:52.975Z,79.40
2017-11-22T00:08:20.555Z,79.40
2017-11-22T00:10:48.098Z,79.40
2017-11-22T00:13:15.682Z,79.40
2017-11-22T00:15:43.999Z,79.50
2017-11-22T00:18:11.681Z,79.50
2017-11-22T00:20:39.228Z,79.40
2017-11-22T00:23:06.802Z,79.40
2017-11-22T00:25:34.343Z,79.40
2017-11-22T00:28:01.923Z,79.40
2017-11-22T00:30:29.462Z,79.40
2017-11-22T00:32:57.034Z,79.40
2017-11-22T00:35:24.576Z,79.50
2017-11-22T00:37:52.150Z,79.40
2017-11-22T00:40:19.683Z,79.40
2017-11-22T00:42:47.271Z,79.50
2017-11-22T00:45:14.806Z,79.50
2017-11-22T00:47:42.391Z,79.50
2017-11-22T00:50:09.941Z,79.50
2017-11-22T00:52:37.519Z,79.50
2017-11-22T00:55:05.061Z,79.40
2017-11-22T00:57:32.641Z,79.50
2017-11-22T01:00:00.188Z,79.40
2017-11-22T01:02:27.777Z,79.40
2017-11-22T01:04:55.321Z,79.40
2017-11-22T01:07:22.899Z,79.50
2017-11-22T01:09:50.444Z,79.50
2017-11-22T01:12:18.027Z,79.50
2017-11-22T01:14:45.575Z,79.50
2017-11-22T01:17:13.168Z,79.50
2017-11-22T01:19:41.479Z,79.50
2017-11-22T01:22:09.055Z,79.50
2017-11-22T01:24:36.594Z,79.50
2017-11-22T01:27:04.179Z,79.50
2017-11-22T01:29:31.718Z,79.50
2017-11-22T01:31:59.310Z,79.30
2017-11-22T01:34:26.860Z,79.40
2017-11-22T01:36:54.474Z,79.40
2017-11-22T01:39:22.789Z,79.40
2017-11-22T01:41:50.361Z,79.40
2017-11-22T01:44:17.908Z,79.40
2017-11-22T01:46:45.483Z,79.30
2017-11-22T01:49:13.023Z,79.30
2017-11-22T01:51:40.600Z,79.30
2017-11-22T01:54:08.163Z,79.30
2017-11-22T01:56:35.748Z,79.40
2017-11-22T01:59:03.286Z,79.20
2017-11-22T02:01:30.874Z,79.30
2017-11-22T02:03:58.416Z,79.40
2017-11-22T02:06:27.499Z,79.30
2017-11-22T02:08:55.041Z,79.30
2017-11-22T02:11:22.614Z,79.30
2017-11-22T02:13:50.158Z,79.20
2017-11-22T02:16:17.743Z,79.20
2017-11-22T02:18:45.298Z,79.30
2017-11-22T02:21:12.877Z,79.20
2017-11-22T02:23:40.419Z,79.30
2017-11-22T02:26:08.003Z,79.30
2017-11-22T02:28:35.548Z,79.30
2017-11-22T02:31:03.122Z,79.40
2017-11-22T02:33:30.674Z,79.30
2017-11-22T02:35:58.255Z,79.80
2017-11-22T02:38:26.561Z,79.40
2017-11-22T02:40:54.142Z,79.20
2017-11-22T02:43:21.694Z,79.30
2017-11-22T02:45:49.274Z,79.30
2017-11-22T02:48:16.815Z,79.20
2017-11-22T02:50:44.394Z,79.30
2017-11-22T02:53:11.946Z,79.20
2017-11-22T02:55:39.523Z,79.20
2017-11-22T02:58:07.062Z,79.20
2017-11-22T03:00:34.643Z,79.10
2017-11-22T03:03:02.191Z,79.10
2017-11-22T03:05:29.777Z,79.10
2017-11-22T03:07:57.322Z,79.10
2017-11-22T03:10:24.894Z,79.20
2017-11-22T03:12:52.436Z,79.10
2017-11-22T03:15:20.009Z,79.10
2017-11-22T03:17:47.551Z,79.10
2017-11-22T03:20:15.130Z,79.10
2017-11-22T03:22:42.672Z,79.10
2017-11-22T03:25:10.249Z,79.10
2017-11-22T03:27:37.790Z,79.10
2017-11-22T03:30:05.363Z,79.00
2017-11-22T03:32:32.904Z,79.10
2017-11-22T03:35:00.479Z,79.10
2017-11-22T03:37:28.027Z,79.10
2017-11-22T03:39:55.606Z,79.10
2017-11-22T03:42:23.148Z,79.10
2017-11-22T03:44:50.718Z,79.20
2017-11-22T03:47:18.266Z,79.20
2017-11-22T03:49:51.492Z,79.10
2017-11-22T03:52:24.634Z,79.10
2017-11-22T03:54:52.204Z,79.10
2017-11-22T03:57:19.745Z,79.10
2017-11-22T03:59:48.206Z,79.10
2017-11-22T04:02:15.747Z,79.10
2017-11-22T04:04:44.092Z,79.20
2017-11-22T04:07:11.638Z,79.10
2017-11-22T04:09:39.410Z,79.10
2017-11-22T04:12:08.769Z,79.10
2017-11-22T04:14:36.357Z,79.10
2017-11-22T04:17:03.928Z,79.10
2017-11-22T04:19:37.339Z,79.10
2017-11-22T04:22:04.879Z,79.00
2017-11-22T04:24:32.469Z,79.00
2017-11-22T04:27:00.018Z,79.00
2017-11-22T04:29:27.591Z,79.00
2017-11-22T04:31:55.137Z,79.00
2017-11-22T04:34:22.713Z,78.60
2017-11-22T04:36:51.025Z,79.80
2017-11-22T04:39:18.615Z,78.90
2017-11-22T04:41:46.159Z,78.90
2017-11-22T04:44:13.738Z,78.90
2017-11-22T04:46:41.276Z,78.90
2017-11-22T04:49:08.848Z,78.90
2017-11-22T04:51:36.389Z,78.80
2017-11-22T04:54:03.979Z,78.80
2017-11-22T04:56:31.511Z,78.70
2017-11-22T04:58:59.090Z,78.70
2017-11-22T05:01:26.630Z,78.60
2017-11-22T05:03:54.206Z,78.60
2017-11-22T05:06:21.737Z,78.70
2017-11-22T05:08:49.315Z,78.60
2017-11-22T05:11:16.853Z,78.60
2017-11-22T05:13:45.206Z,78.50
2017-11-22T05:16:12.745Z,78.50
2017-11-22T05:18:40.329Z,78.50
2017-11-22T05:21:07.874Z,78.50
2017-11-22T05:23:35.452Z,78.50
2017-11-22T05:26:03.758Z,78.50
2017-11-22T05:28:31.329Z,78.40
2017-11-22T05:30:58.871Z,78.40
2017-11-22T05:33:26.451Z,78.50
2017-11-22T05:35:53.988Z,78.40
2017-11-22T05:38:21.574Z,78.40
2017-11-22T05:40:49.105Z,78.40
2017-11-22T05:43:17.446Z,78.30
2017-11-22T05:45:44.993Z,78.30
2017-11-22T05:48:12.566Z,78.30
2017-11-22T05:50:40.095Z,78.30
2017-11-22T05:53:07.673Z,78.30
2017-11-22T05:55:35.209Z,78.20
2017-11-22T05:58:02.779Z,78.20
2017-11-22T06:00:30.323Z,78.30
2017-11-22T06:02:57.908Z,78.20
2017-11-22T06:05:25.442Z,78.20
2017-11-22T06:07:53.018Z,78.20
2017-11-22T06:10:20.553Z,78.30
2017-11-22T06:12:48.132Z,78.30
2017-11-22T06:15:15.668Z,78.30
2017-11-22T06:17:43.260Z,78.30
2017-11-22T06:20:10.802Z,78.30
2017-11-22T06:22:38.580Z,78.30
2017-11-22T06:25:06.123Z,78.30
2017-11-22T06:27:33.707Z,78.30
2017-11-22T06:30:01.261Z,78.30
2017-11-22T06:32:28.839Z,78.30
2017-11-22T06:34:56.373Z,78.40
2017-11-22T06:37:23.950Z,78.20
2017-11-22T06:39:51.493Z,78.20
2017-11-22T06:42:19.066Z,78.20
2017-11-22T06:44:46.596Z,78.20
2017-11-22T06:47:14.172Z,78.20
2017-11-22T06:49:41.717Z,78.20
2017-11-22T06:52:09.295Z,78.20
2017-11-22T06:54:36.841Z,78.30
2017-11-22T06:57:04.412Z,78.20
2017-11-22T06:59:31.953Z,78.20
2017-11-22T07:01:59.531Z,78.20
2017-11-22T07:04:27.069Z,78.30
2017-11-22T07:06:54.648Z,78.30
2017-11-22T07:09:24.154Z,78.20
2017-11-22T07:11:51.755Z,78.30
2017-11-22T07:14:19.288Z,78.30
2017-11-22T07:16:52.694Z,78.20
2017-11-22T07:19:20.234Z,78.20
2017-11-22T07:21:47.816Z,78.20
2017-11-22T07:24:15.355Z,78.20
2017-11-22T07:26:42.933Z,78.20
2017-11-22T07:29:10.471Z,78.20
2017-11-22T07:31:38.009Z,78.20
2017-11-22T07:34:05.589Z,78.10
2017-11-22T07:36:38.946Z,78.10
2017-11-22T07:39:07.251Z,78.20
2017-11-22T07:41:34.785Z,78.10
2017-11-22T07:44:03.120Z,78.20
2017-11-22T07:46:30.658Z,78.20
2017-11-22T07:48:58.232Z,78.30
2017-11-22T07:51:31.515Z,77.80
2017-11-22T07:53:59.090Z,77.20
2017-11-22T07:56:26.837Z,76.70
2017-11-22T07:58:54.416Z,76.10
2017-11-22T08:01:21.971Z,75.70
2017-11-22T08:03:49.553Z,75.50
2017-11-22T08:06:17.094Z,75.20
2017-11-22T08:08:44.683Z,75.00
2017-11-22T08:11:12.249Z,74.90
2017-11-22T08:13:40.603Z,74.70
2017-11-22T08:16:08.150Z,74.70
2017-11-22T08:18:35.734Z,74.60
2017-11-22T08:21:03.276Z,74.60
2017-11-22T08:23:30.871Z,74.70
2017-11-22T08:25:59.186Z,75.10
2017-11-22T08:28:26.758Z,75.00
2017-11-22T08:30:54.290Z,75.40
2017-11-22T08:33:21.873Z,75.90
2017-11-22T08:35:49.424Z,76.00
2017-11-22T08:38:17.001Z,76.20
2017-11-22T08:40:44.533Z,76.30
2017-11-22T08:43:17.916Z,76.30
2017-11-22T08:45:45.636Z,76.00
2017-11-22T08:48:13.209Z,76.00
2017-11-22T08:50:40.751Z,75.90
2017-11-22T08:53:08.344Z,75.50
2017-11-22T08:55:42.257Z,75.00
2017-11-22T08:58:15.495Z,75.00
2017-11-22T09:00:43.033Z,74.30
2017-11-22T09:03:17.301Z,74.30
2017-11-22T09:05:48.649Z,73.90
2017-11-22T09:08:16.238Z,74.40
2017-11-22T09:10:44.542Z,73.00
2017-11-22T09:13:16.035Z,73.00
2017-11-22T09:15:43.594Z,72.80
2017-11-22T09:18:12.955Z,73.30
2017-11-22T09:20:40.493Z,72.30
2017-11-22T09:23:08.079Z,71.60
2017-11-22T09:25:36.410Z,70.60
2017-11-22T09:28:04.842Z,69.00
2017-11-22T09:30:32.391Z,69.10
2017-11-22T09:33:02.916Z,68.50
2017-11-22T09:35:30.594Z,68.00
2017-11-22T09:37:59.106Z,67.60
2017-11-22T09:40:26.662Z,67.50
2017-11-22T09:42:54.244Z,67.00
2017-11-22T09:45:22.610Z,67.20
2017-11-22T09:47:50.186Z,67.10
2017-11-22T09:50:18.494Z,66.70
2017-11-22T09:52:46.072Z,66.60
2017-11-22T09:55:13.613Z,66.60
2017-11-22T09:57:41.195Z,66.30
2017-11-22T10:00:08.735Z,65.80
2017-11-22T10:02:36.315Z,65.70
2017-11-22T10:05:03.858Z,65.30
2017-11-22T10:07:31.439Z,65.20
2017-11-22T10:09:58.978Z,64.40
2017-11-22T10:12:26.565Z,63.90
2017-11-22T10:14:54.179Z,63.50
2017-11-22T10:17:28.334Z,61.50
2017-11-22T10:20:01.569Z,61.50
2017-11-22T10:22:29.959Z,60.40
2017-11-22T10:25:04.079Z,60.10
2017-11-22T10:27:31.682Z,60.10
2017-11-22T10:30:05.063Z,59.70
2017-11-22T10:32:32.654Z,59.50
2017-11-22T10:35:00.191Z,59.20
2017-11-22T10:37:27.773Z,58.80
2017-11-22T10:39:55.327Z,58.30
2017-11-22T10:42:22.969Z,58.00
2017-11-22T10:44:50.510Z,58.00
2017-11-22T10:47:18.089Z,57.70
2017-11-22T10:49:45.630Z,57.90
2017-11-22T10:52:13.216Z,57.60
2017-11-22T10:54:40.757Z,57.60
2017-11-22T10:57:08.349Z,57.30
2017-11-22T10:59:35.903Z,58.20
2017-11-22T11:02:03.493Z,57.30
2017-11-22T11:04:31.024Z,57.10
2017-11-22T11:06:58.605Z,56.90
2017-11-22T11:09:26.149Z,56.60
2017-11-22T11:11:53.729Z,56.70
2017-11-22T11:14:21.276Z,56.20
2017-11-22T11:16:48.917Z,56.10
2017-11-22T11:19:16.453Z,56.20
2017-11-22T11:21:44.026Z,56.00
2017-11-22T11:24:11.571Z,55.80
2017-11-22T11:26:39.149Z,55.60
2017-11-22T11:29:06.693Z,55.70
2017-11-22T11:31:34.285Z,55.80
2017-11-22T11:34:01.829Z,55.70
2017-11-22T11:36:33.234Z,56.40
2017-11-22T11:39:01.663Z,55.90
2017-11-22T11:41:29.246Z,55.80
2017-11-22T11:43:56.787Z,55.90
2017-11-22T11:46:24.362Z,55.50
2017-11-22T11:48:51.907Z,55.80
2017-11-22T11:51:19.491Z,56.10
2017-11-22T11:53:47.033Z,55.50
2017-11-22T11:56:14.621Z,56.00
2017-11-22T11:58:42.238Z,55.70
2017-11-22T12:01:09.822Z,56.00
2017-11-22T12:03:37.362Z,55.40
2017-11-22T12:06:04.940Z,56.50
2017-11-22T12:08:32.476Z,56.70
2017-11-22T12:11:00.072Z,56.30
2017-11-22T12:13:27.611Z,56.00
2017-11-22T12:15:55.190Z,55.50
2017-11-22T12:18:22.741Z,55.70
2017-11-22T12:20:56.134Z,56.40
2017-11-22T12:23:24.469Z,57.30
2017-11-22T12:25:52.093Z,57.90
2017-11-22T12:28:19.644Z,57.80
2017-11-22T12:30:47.191Z,58.10
2017-11-22T12:33:14.776Z,58.70
2017-11-22T12:35:43.077Z,58.40
2017-11-22T12:38:10.676Z,58.80
2017-11-22T12:40:38.208Z,59.60
2017-11-22T12:43:05.896Z,59.90
2017-11-22T12:45:33.453Z,59.80
2017-11-22T12:48:01.040Z,59.60
2017-11-22T12:50:28.596Z,60.00
2017-11-22T12:52:56.187Z,60.40
2017-11-22T12:55:24.518Z,61.00
2017-11-22T12:57:53.970Z,61.00
2017-11-22T13:00:21.538Z,61.50
2017-11-22T13:02:49.881Z,61.80
2017-11-22T13:05:17.421Z,61.70
2017-11-22T13:07:45.002Z,62.80
2017-11-22T13:10:13.354Z,63.70
2017-11-22T13:12:41.019Z,62.60
2017-11-22T13:15:08.561Z,63.90
2017-11-22T13:17:36.138Z,64.20
2017-11-22T13:20:03.691Z,65.30
2017-11-22T13:22:31.266Z,65.90
2017-11-22T13:24:58.808Z,64.90
2017-11-22T13:27:26.393Z,64.80
2017-11-22T13:29:53.943Z,65.50
2017-11-22T13:32:21.524Z,65.50
2017-11-22T13:34:49.064Z,65.50
2017-11-22T13:37:16.664Z,64.80
2017-11-22T13:39:44.982Z,65.40
2017-11-22T13:42:12.570Z,65.40
2017-11-22T13:44:40.112Z,65.50
2017-11-22T13:47:07.696Z,65.20
2017-11-22T13:49:35.230Z,64.90
2017-11-22T13:52:02.834Z,65.10
2017-11-22T13:54:30.370Z,65.10
2017-11-22T13:56:57.955Z,65.20
2017-11-22T13:59:25.499Z,65.40
2017-11-22T14:01:53.164Z,65.70
2017-11-22T14:04:20.713Z,66.10
2017-11-22T14:06:48.354Z,65.60
2017-11-22T14:09:15.908Z,65.80
2017-11-22T14:11:43.491Z,65.40
2017-11-22T14:14:11.039Z,65.20
2017-11-22T14:16:38.621Z,65.40
2017-11-22T14:19:06.157Z,65.70
2017-11-22T14:21:33.738Z,65.70
2017-11-22T14:24:01.297Z,65.60
2017-11-22T14:26:28.882Z,65.80
2017-11-22T14:28:57.196Z,65.30
2017-11-22T14:31:24.777Z,65.60
2017-11-22T14:33:52.312Z,65.70
2017-11-22T14:36:19.902Z,65.80
2017-11-22T14:38:47.449Z,65.70
2017-11-22T14:41:15.030Z,66.90
2017-11-22T14:43:42.673Z,66.90
2017-11-22T14:46:10.298Z,66.90
2017-11-22T14:48:37.845Z,66.60
2017-11-22T14:51:06.198Z,66.80
2017-11-22T14:53:33.752Z,66.70
2017-11-22T14:56:01.352Z,66.80
2017-11-22T14:58:29.690Z,66.70
2017-11-22T15:00:57.227Z,66.70
2017-11-22T15:03:24.797Z,66.80
2017-11-22T15:05:52.337Z,67.00
2017-11-22T15:08:19.914Z,67.00
2017-11-22T15:10:47.463Z,67.10
2017-11-22T15:13:15.041Z,67.10
2017-11-22T15:15:42.655Z,67.30
2017-11-22T15:18:10.967Z,67.60
2017-11-22T15:20:38.505Z,67.50
2017-11-22T15:23:06.073Z,67.50
2017-11-22T15:25:33.614Z,67.60
2017-11-22T15:28:01.957Z,67.80
2017-11-22T15:30:29.507Z,67.70
2017-11-22T15:32:57.094Z,68.70
2017-11-22T15:35:25.426Z,68.60
2017-11-22T15:37:52.996Z,68.10
2017-11-22T15:40:20.536Z,68.10
2017-11-22T15:42:48.120Z,68.30
2017-11-22T15:45:15.665Z,68.40
2017-11-22T15:47:43.242Z,68.50
2017-11-22T15:50:10.847Z,68.70
2017-11-22T15:52:39.184Z,68.90
2017-11-22T15:55:06.720Z,68.80
2017-11-22T15:57:34.297Z,68.90
2017-11-22T16:00:01.883Z,69.10
2017-11-22T16:02:29.467Z,69.10
2017-11-22T16:04:57.769Z,69.10
2017-11-22T16:07:25.356Z,69.10
2017-11-22T16:09:52.898Z,69.10
2017-11-22T16:12:20.472Z,69.30
2017-11-22T16:14:48.019Z,69.30
2017-11-22T16:17:15.611Z,69.30
2017-11-22T16:19:43.162Z,69.40
2017-11-22T16:22:10.785Z,69.50
2017-11-22T16:24:38.329Z,69.60
2017-11-22T16:27:05.910Z,69.50
2017-11-22T16:29:33.500Z,69.60
2017-11-22T16:32:01.091Z,69.80
2017-11-22T16:34:29.399Z,69.90
2017-11-22T16:36:56.982Z,69.80
2017-11-22T16:39:24.566Z,69.90
2017-11-22T16:41:52.150Z,70.00
2017-11-22T16:44:19.686Z,70.00
2017-11-22T16:46:47.266Z,70.00
2017-11-22T16:49:14.882Z,70.10
2017-11-22T16:51:42.471Z,70.20
2017-11-22T16:54:10.101Z,70.20
2017-11-22T16:56:37.721Z,70.30
2017-11-22T16:59:06.088Z,71.00
2017-11-22T17:01:33.707Z,70.20
2017-11-22T17:04:01.294Z,70.30
2017-11-22T17:06:29.770Z,70.30
2017-11-22T17:08:57.364Z,70.40
2017-11-22T17:11:25.729Z,70.40
2017-11-22T17:13:53.270Z,70.40
2017-11-22T17:16:20.854Z,70.50
2017-11-22T17:18:49.215Z,70.50
2017-11-22T17:21:16.799Z,70.50
2017-11-22T17:23:45.147Z,70.50
2017-11-22T17:26:12.717Z,70.50
2017-11-22T17:28:40.302Z,70.40
2017-11-22T17:31:08.648Z,70.50
2017-11-22T17:33:36.196Z,70.50
2017-11-22T17:36:03.786Z,70.40
2017-11-22T17:38:32.135Z,71.40
2017-11-22T17:40:59.711Z,70.30
2017-11-22T17:43:33.885Z,70.40
2017-11-22T17:46:28.622Z,70.40
2017-11-22T17:48:57.732Z,70.20
2017-11-22T17:51:25.351Z,70.10
2017-11-22T17:53:52.928Z,70.10
2017-11-22T17:56:20.504Z,70.20
2017-11-22T17:58:48.080Z,70.00
2017-11-22T18:01:16.467Z,70.00
2017-11-22T18:03:44.894Z,70.00
2017-11-22T18:06:12.475Z,70.00
2017-11-22T18:08:40.065Z,70.00
2017-11-22T18:11:08.460Z,70.10
2017-11-22T18:13:36.000Z,70.00
2017-11-22T18:16:04.389Z,70.00
2017-11-22T18:18:32.734Z,70.00
2017-11-22T18:21:00.358Z,70.00
2017-11-22T18:23:27.903Z,70.10
2017-11-22T18:25:55.524Z,70.10
2017-11-22T18:28:23.108Z,70.10
2017-11-22T18:30:51.541Z,70.10
2017-11-22T18:33:19.128Z,70.10
2017-11-22T18:35:46.748Z,70.10
2017-11-22T18:38:14.333Z,70.10
2017-11-22T18:40:41.970Z,70.10
2017-11-22T18:43:09.561Z,70.00
2017-11-22T18:45:37.191Z,70.00
2017-11-22T18:48:04.861Z,70.00
2017-11-22T18:50:32.476Z,70.00
2017-11-22T18:53:00.780Z,70.00
2017-11-22T18:55:28.406Z,70.00
2017-11-22T18:57:56.727Z,70.10
2017-11-22T19:00:24.356Z,70.00
2017-11-22T19:02:52.710Z,70.10
2017-11-22T19:05:20.342Z,69.90
2017-11-22T19:07:47.929Z,70.00
2017-11-22T19:10:15.538Z,70.10
2017-11-22T19:12:43.083Z,70.10
2017-11-22T19:15:10.731Z,70.10
2017-11-22T19:17:39.143Z,70.10
2017-11-22T19:20:06.728Z,70.10
2017-11-22T19:22:34.309Z,70.20
2017-11-22T19:25:01.887Z,70.20
2017-11-22T19:27:30.286Z,70.20
2017-11-22T19:29:57.934Z,70.20
2017-11-22T19:32:26.237Z,70.40
2017-11-22T19:34:53.877Z,70.20
2017-11-22T19:37:22.268Z,70.40
2017-11-22T19:39:49.852Z,70.40
2017-11-22T19:42:17.529Z,70.40
2017-11-22T19:44:45.113Z,70.50
2017-11-22T19:47:12.695Z,70.40
2017-11-22T19:49:41.053Z,70.50
2017-11-22T19:52:08.679Z,70.50
2017-11-22T19:54:36.268Z,70.60
2017-11-22T19:57:03.912Z,70.60
2017-11-22T19:59:31.503Z,70.50
2017-11-22T20:01:59.894Z,71.00
2017-11-22T20:04:28.356Z,70.50
2017-11-22T20:07:07.985Z,70.60
2017-11-22T20:09:35.573Z,70.60
2017-11-22T20:12:03.984Z,71.40
2017-11-22T20:14:31.578Z,70.50
2017-11-22T20:16:59.205Z,70.50
2017-11-22T20:19:26.798Z,70.60
2017-11-22T20:21:54.426Z,70.50
2017-11-22T20:24:22.038Z,70.40
2017-11-22T20:26:49.669Z,70.40
2017-11-22T20:29:17.256Z,70.40
2017-11-22T20:31:44.890Z,70.50
2017-11-22T20:34:12.429Z,70.50
2017-11-22T20:36:40.066Z,70.50
2017-11-22T20:39:08.432Z,70.50
2017-11-22T20:41:36.056Z,70.50
2017-11-22T20:44:03.649Z,70.50
2017-11-22T20:46:31.276Z,70.30
2017-11-22T20:48:58.884Z,70.30
2017-11-22T20:51:27.281Z,70.30
2017-11-22T20:53:54.872Z,70.30
2017-11-22T20:56:22.502Z,70.30
2017-11-22T20:58:50.106Z,70.40
2017-11-22T21:01:17.691Z,70.20
2017-11-22T21:03:45.248Z,70.30
2017-11-22T21:06:12.875Z,70.30
2017-11-22T21:08:40.477Z,70.30
2017-11-22T21:11:08.112Z,70.30
2017-11-22T21:13:35.668Z,70.40
2017-11-22T21:16:03.301Z,70.30
2017-11-22T21:18:30.846Z,70.30
2017-11-22T21:20:59.237Z,70.20
2017-11-22T21:23:26.833Z,70.20
2017-11-22T21:25:54.470Z,70.20
2017-11-22T21:28:22.057Z,70.20
2017-11-22T21:30:49.689Z,70.20
2017-11-22T21:33:17.294Z,70.00
2017-11-22T21:35:44.925Z,70.00
2017-11-22T21:38:12.576Z,70.00
2017-11-22T21:40:40.907Z,69.90
2017-11-22T21:43:08.506Z,70.60
2017-11-22T21:45:36.131Z,70.00
2017-11-22T21:48:03.737Z,69.80
2017-11-22T21:50:31.384Z,70.00
2017-11-22T21:52:58.973Z,69.80
2017-11-22T21:55:26.606Z,70.00
2017-11-22T21:57:54.208Z,69.90
2017-11-22T22:00:21.790Z,69.80
2017-11-22T22:02:49.370Z,69.90
2017-11-22T22:05:17.774Z,69.90
2017-11-22T22:07:45.382Z,69.90
2017-11-22T22:10:13.045Z,70.10
2017-11-22T22:12:40.656Z,69.90
2017-11-22T22:15:08.276Z,70.00
2017-11-22T22:17:35.875Z,70.00
2017-11-22T22:20:03.461Z,69.80
2017-11-22T22:22:31.062Z,69.80
2017-11-22T22:24:59.470Z,69.70
2017-11-22T22:27:27.057Z,69.70
2017-11-22T22:29:54.641Z,69.70
2017-11-22T22:32:22.234Z,69.70
2017-11-22T22:34:50.629Z,69.70
2017-11-22T22:37:18.227Z,69.70
2017-11-22T22:39:45.862Z,69.80
2017-11-22T22:42:13.452Z,69.90
2017-11-22T22:44:41.041Z,69.60
2017-11-22T22:47:08.594Z,69.70
2017-11-22T22:49:36.222Z,69.80
2017-11-22T22:52:03.821Z,69.70
2017-11-22T22:54:31.458Z,69.80
2017-11-22T22:56:59.015Z,69.80
2017-11-22T22:59:26.643Z,69.80
2017-11-22T23:01:54.184Z,69.70
2017-11-22T23:04:22.543Z,69.70
2017-11-22T23:06:50.088Z,69.60
2017-11-22T23:09:17.681Z,69.60
2017-11-22T23:11:45.994Z,69.60
2017-11-22T23:14:13.576Z,70.30
2017-11-22T23:16:41.160Z,69.60
2017-11-22T23:19:08.707Z,69.50
2017-11-22T23:21:36.289Z,69.60
2017-11-22T23:24:03.829Z,69.70
2017-11-22T23:26:31.461Z,69.30
2017-11-22T23:28:59.001Z,69.60
2017-11-22T23:31:26.574Z,69.50
2017-11-22T23:33:54.150Z,69.40
2017-11-22T23:36:21.721Z,69.40
2017-11-22T23:38:49.312Z,69.50
2017-11-22T23:41:16.894Z,69.50
2017-11-22T23:43:44.433Z,69.40
2017-11-22T23:46:12.779Z,70.20
2017-11-22T23:48:40.320Z,69.40
2017-11-22T23:51:07.903Z,69.50
2017-11-22T23:53:35.456Z,69.30
2017-11-22T23:56:03.037Z,69.50
2017-11-22T23:58:30.579Z,69.30
